To NAV CANADA Home Page Login to a new session Search on AWWS site Disclaimer Vers la page française équivalente Tips FAQ What's new on the site To the Forecasts and Observations / NOTAM section To "File a Flight Plan" website Publications and other links Update of the User's profile FIC Telephone Numbers My Weather Data Folder Route Weather Data Regional Weather Data Local Weather Data To the Forecasts and Observations / NOTAM section
Request Generated 12/01/2020 at 08:29:37 UTC . Weather information available at that time is displayed.

METAR/TAF

TORONTO/LESTER B. PEARSON INTL/ON    

METAR CYYZ 010800Z 34016G26KT 2 1/2SM -SN VV010 M01/M03 A2947 RMK SN8 SLP988=
METAR CYYZ 010700Z 34019G25KT 2 1/2SM -SN VV012 M01/M02 A2947 RMK SN8 SLP987=
METAR CYYZ 010600Z 35022KT 2SM R33L/5500VP6000FT/U -SN VV009 M01/M02 A2947 RMK SN8 /S01/ SLP987=

TAF CYYZ 010538Z 0106/0212 35015G25KT 2SM -SN OVC012 TEMPO 0106/0118
6SM -SN OVC025
FM011800 33015KT 5SM -SN OVC015
FM020000 31012G22KT 2SM -SN OVC012
FM020300 31012G22KT 11/2SM -SN OVC010
FM021000 28012G22KT 5SM -SN OVC025
RMK NXT FCST BY 010900Z=
Your time UTC time
Weather data provided by Environment Canada and NAV CANADA